Time;durP1;ratioP1;P1;durP2;ratioP2;P2;SDS_P1;SDS_P2;PMS_P1;PMS_P2;Temp;Humidity;BMP_temperature;BMP_pressure;BME280_temperature;BME280_humidity;BME280_pressure;Samples;Min_cycle;Max_cycle;Signal;HPM_P1;HPM_P2
2022/04/20 00:01:43;;;;;;;8.50;4.15;;;9.10;99.90;;;;;;5084196;28;20047;-67
2022/04/20 00:04:11;;;;;;;7.13;3.70;;;9.10;99.90;;;;;;5082791;28;20051;-67
2022/04/20 00:06:37;;;;;;;8.35;4.25;;;9.10;99.90;;;;;;5090607;28;20044;-67
2022/04/20 00:09:03;;;;;;;6.53;4.25;;;9.00;99.90;;;;;;5089317;28;20055;-68
2022/04/20 00:11:28;;;;;;;7.03;3.92;;;9.10;99.90;;;;;;5087537;28;20033;-67
2022/04/20 00:13:54;;;;;;;7.53;4.10;;;9.10;99.90;;;;;;5090490;28;20040;-67
2022/04/20 00:16:21;;;;;;;6.25;3.63;;;9.00;99.90;;;;;;5085162;28;20097;-67
2022/04/20 00:18:46;;;;;;;8.20;3.80;;;9.10;99.90;;;;;;5089691;28;20490;-67
2022/04/20 00:21:12;;;;;;;7.03;3.72;;;9.00;99.90;;;;;;5086666;28;20040;-67
2022/04/20 00:23:37;;;;;;;6.22;3.63;;;9.00;99.90;;;;;;5090032;28;20036;-67
2022/04/20 00:26:03;;;;;;;7.22;3.88;;;9.00;99.90;;;;;;5087600;28;20044;-67
2022/04/20 00:28:29;;;;;;;8.93;3.53;;;9.00;99.90;;;;;;5085244;28;20074;-68
2022/04/20 00:30:54;;;;;;;5.70;3.50;;;8.90;99.90;;;;;;5070515;28;20040;-67
2022/04/20 00:33:20;;;;;;;6.30;3.65;;;8.90;99.90;;;;;;5087638;28;20131;-67
2022/04/20 00:35:45;;;;;;;8.43;4.10;;;8.80;99.90;;;;;;5085297;28;20036;-66
2022/04/20 00:38:11;;;;;;;8.00;4.03;;;8.80;99.90;;;;;;5086043;28;20047;-67
2022/04/20 00:40:37;;;;;;;6.97;3.70;;;8.90;99.90;;;;;;5086686;28;20821;-67
2022/04/20 00:43:03;;;;;;;7.20;3.65;;;8.80;99.90;;;;;;5081925;28;20044;-69
2022/04/20 00:45:30;;;;;;;7.63;3.78;;;8.80;99.90;;;;;;5089734;28;20119;-67
2022/04/20 00:47:58;;;;;;;6.63;3.80;;;8.70;99.90;;;;;;5087758;28;20044;-68
2022/04/20 00:50:24;;;;;;;6.60;3.88;;;8.70;99.90;;;;;;5085839;28;20048;-68
2022/04/20 00:52:50;;;;;;;8.30;3.85;;;8.70;99.90;;;;;;5088348;28;20048;-68
2022/04/20 00:55:15;;;;;;;7.00;3.53;;;8.60;99.90;;;;;;5087046;28;20052;-67
2022/04/20 00:57:41;;;;;;;7.38;3.70;;;8.60;99.90;;;;;;5085748;28;20042;-68
2022/04/20 01:00:07;;;;;;;6.90;3.83;;;8.60;99.90;;;;;;5085745;28;20750;-68
2022/04/20 01:02:33;;;;;;;7.18;4.07;;;8.60;99.90;;;;;;5086169;28;20044;-68
2022/04/20 01:04:58;;;;;;;6.68;3.70;;;8.50;99.90;;;;;;5088761;28;20040;-69
2022/04/20 01:07:24;;;;;;;6.18;3.35;;;8.50;99.90;;;;;;5086932;28;20524;-68
2022/04/20 01:09:49;;;;;;;7.88;3.90;;;8.50;99.90;;;;;;5085253;28;20044;-67
2022/04/20 01:12:17;;;;;;;9.05;4.30;;;8.50;99.90;;;;;;5082941;28;20132;-69
2022/04/20 01:14:43;;;;;;;6.25;3.67;;;8.50;99.90;;;;;;5085310;28;20050;-67
2022/04/20 01:17:09;;;;;;;9.15;4.13;;;8.50;99.90;;;;;;5086867;28;20043;-68
2022/04/20 01:19:39;;;;;;;7.80;3.53;;;8.50;99.90;;;;;;5082152;28;20154;-67
2022/04/20 01:22:06;;;;;;;7.15;3.80;;;8.50;99.90;;;;;;5085743;28;20110;-67
2022/04/20 01:24:32;;;;;;;6.28;3.80;;;8.50;99.90;;;;;;5087636;28;20064;-67
2022/04/20 01:26:58;;;;;;;8.77;3.70;;;8.50;99.90;;;;;;5082926;28;20054;-67
2022/04/20 01:29:26;;;;;;;7.50;3.95;;;8.40;99.90;;;;;;5084259;28;20111;-68
2022/04/20 01:31:51;;;;;;;7.32;3.58;;;8.40;99.90;;;;;;5082628;28;20452;-67
2022/04/20 01:34:17;;;;;;;6.50;3.83;;;8.40;99.90;;;;;;5087501;28;20082;-67
2022/04/20 01:36:43;;;;;;;7.63;3.90;;;8.40;99.90;;;;;;5084921;28;20073;-68
2022/04/20 01:39:08;;;;;;;7.35;3.80;;;8.30;99.90;;;;;;5083718;28;20085;-67
2022/04/20 01:41:34;;;;;;;8.52;4.00;;;8.30;99.90;;;;;;5086856;28;20162;-67
2022/04/20 01:43:59;;;;;;;7.70;4.20;;;8.30;99.90;;;;;;5087184;28;20063;-67
2022/04/20 01:46:25;;;;;;;6.75;3.60;;;8.20;99.90;;;;;;5084613;28;20717;-67
2022/04/20 01:48:50;;;;;;;7.55;3.78;;;8.20;99.90;;;;;;5082227;28;20140;-67
2022/04/20 01:54:18;;;;;;;7.63;4.32;;;8.10;99.90;;;;;;5042247;28;84588;-68
2022/04/20 01:56:46;;;;;;;6.45;3.78;;;8.10;99.90;;;;;;5072610;28;20161;-67
2022/04/20 01:59:12;;;;;;;6.72;4.03;;;8.10;99.90;;;;;;5086920;28;20392;-67
2022/04/20 02:04:22;;;;;;;6.93;4.13;;;8.10;99.90;;;;;;5085179;28;20051;-67
2022/04/20 02:06:47;;;;;;;8.73;4.35;;;8.10;99.90;;;;;;5086498;28;20044;-67
2022/04/20 02:09:13;;;;;;;9.07;4.43;;;7.90;99.90;;;;;;5087742;28;20047;-68
2022/04/20 02:11:39;;;;;;;8.02;4.22;;;7.90;99.90;;;;;;5085088;28;20052;-67
2022/04/20 02:14:04;;;;;;;7.65;4.07;;;7.80;99.90;;;;;;5086953;28;20119;-67
2022/04/20 02:16:30;;;;;;;7.13;4.10;;;7.80;99.90;;;;;;5086683;28;20058;-67
2022/04/20 02:18:56;;;;;;;8.05;4.53;;;7.70;99.90;;;;;;5082194;28;20113;-67
2022/04/20 02:21:22;;;;;;;7.32;4.32;;;7.70;99.90;;;;;;5085777;28;20044;-67
2022/04/20 02:23:47;;;;;;;6.85;4.10;;;7.80;99.90;;;;;;5088327;28;20059;-67
2022/04/20 02:26:13;;;;;;;8.88;4.57;;;7.70;99.90;;;;;;5084580;28;20044;-67
2022/04/20 02:28:39;;;;;;;6.68;3.85;;;7.70;99.90;;;;;;5081997;28;20477;-67
2022/04/20 02:31:05;;;;;;;8.75;4.50;;;7.70;99.90;;;;;;5085852;28;20112;-67
2022/04/20 02:33:30;;;;;;;7.50;4.20;;;7.70;99.90;;;;;;5079023;28;20074;-67
2022/04/20 02:35:57;;;;;;;8.57;4.53;;;7.80;99.90;;;;;;5087015;28;20401;-68
2022/04/20 02:38:23;;;;;;;7.55;4.10;;;7.60;99.90;;;;;;5084046;28;20172;-66
2022/04/20 02:40:52;;;;;;;7.20;4.38;;;7.70;99.90;;;;;;5085937;28;20139;-66
2022/04/20 02:43:17;;;;;;;6.85;4.22;;;7.70;99.90;;;;;;5085294;28;20369;-65
2022/04/20 02:45:43;;;;;;;7.43;4.60;;;7.60;99.90;;;;;;5086598;28;20032;-66
2022/04/20 02:48:09;;;;;;;8.35;4.32;;;7.60;99.90;;;;;;5085804;28;20541;-67
2022/04/20 02:50:35;;;;;;;7.43;3.78;;;7.50;99.90;;;;;;5084079;28;20041;-66
2022/04/20 02:53:01;;;;;;;6.63;3.83;;;7.50;99.90;;;;;;5080745;28;20104;-67
2022/04/20 02:55:26;;;;;;;8.68;4.30;;;7.50;99.90;;;;;;5083940;28;20127;-67
2022/04/20 02:57:52;;;;;;;9.60;5.03;;;7.50;99.90;;;;;;5086321;28;20048;-67
2022/04/20 03:00:17;;;;;;;7.60;4.35;;;7.50;99.90;;;;;;5077650;28;20051;-67
2022/04/20 03:02:43;;;;;;;9.55;4.50;;;7.40;99.90;;;;;;5086389;28;20384;-66
2022/04/20 03:05:09;;;;;;;7.50;4.28;;;7.30;99.90;;;;;;5081961;28;20234;-67
2022/04/20 03:07:35;;;;;;;8.43;4.35;;;7.30;99.90;;;;;;5083935;28;20036;-66
2022/04/20 03:10:02;;;;;;;7.95;4.30;;;7.30;99.90;;;;;;5084090;28;20093;-67
2022/04/20 03:12:27;;;;;;;6.78;4.15;;;7.30;99.90;;;;;;5084998;28;20082;-67
2022/04/20 03:14:54;;;;;;;7.65;4.57;;;7.30;99.90;;;;;;5086007;28;20039;-67
2022/04/20 03:17:21;;;;;;;7.85;4.18;;;7.20;99.90;;;;;;5085452;28;20044;-67
2022/04/20 03:19:47;;;;;;;7.93;4.25;;;7.20;99.90;;;;;;5086161;28;20048;-67
2022/04/20 03:22:12;;;;;;;6.78;4.00;;;7.20;99.90;;;;;;5086857;28;20040;-67
2022/04/20 03:24:38;;;;;;;8.13;5.03;;;7.20;99.90;;;;;;5083698;28;20040;-67
2022/04/20 03:27:04;;;;;;;7.68;4.68;;;7.20;99.90;;;;;;5082009;28;20066;-67
2022/04/20 03:29:30;;;;;;;8.52;4.65;;;7.10;99.90;;;;;;5084939;28;20051;-67
2022/04/20 03:31:56;;;;;;;8.27;4.55;;;7.10;99.90;;;;;;5085312;28;20089;-68
2022/04/20 03:34:22;;;;;;;7.57;4.57;;;7.10;99.90;;;;;;5083112;28;20052;-67
2022/04/20 03:36:47;;;;;;;6.55;4.40;;;7.10;99.90;;;;;;5084675;28;20059;-68
2022/04/20 03:39:13;;;;;;;7.78;4.15;;;7.00;99.90;;;;;;5084387;28;20345;-67
2022/04/20 03:41:39;;;;;;;7.60;4.40;;;7.00;99.90;;;;;;5079950;28;20187;-67
2022/04/20 03:44:05;;;;;;;9.32;4.43;;;7.00;99.90;;;;;;5083424;28;20039;-67
2022/04/20 03:46:31;;;;;;;7.15;4.60;;;7.00;99.90;;;;;;5079346;28;20128;-68
2022/04/20 03:48:56;;;;;;;8.90;4.60;;;7.00;99.90;;;;;;5085026;28;20509;-69
2022/04/20 03:51:22;;;;;;;8.10;4.40;;;6.90;99.90;;;;;;5082457;28;20051;-67
2022/04/20 03:53:47;;;;;;;8.80;4.95;;;6.90;99.90;;;;;;5087078;28;20044;-68
2022/04/20 03:56:14;;;;;;;8.90;4.60;;;6.80;99.90;;;;;;5082628;28;20748;-68
2022/04/20 03:58:39;;;;;;;7.90;4.93;;;6.80;99.90;;;;;;5082148;28;20351;-68
2022/04/20 04:01:05;;;;;;;7.72;4.50;;;6.70;99.90;;;;;;5082374;28;20036;-68
2022/04/20 04:03:31;;;;;;;7.68;4.38;;;6.60;99.90;;;;;;5083310;28;20151;-68
2022/04/20 04:05:57;;;;;;;8.00;4.78;;;6.70;99.90;;;;;;5087148;28;20466;-69
2022/04/20 04:08:23;;;;;;;9.10;5.00;;;6.60;99.90;;;;;;5085414;28;20040;-68
2022/04/20 04:10:50;;;;;;;7.85;4.57;;;6.60;99.90;;;;;;5083261;28;20082;-67
2022/04/20 04:13:17;;;;;;;6.95;4.30;;;6.60;99.90;;;;;;5084800;28;20044;-67
2022/04/20 04:15:44;;;;;;;7.70;4.45;;;6.50;99.90;;;;;;5083572;28;20071;-67
2022/04/20 04:18:09;;;;;;;7.85;4.53;;;6.50;99.90;;;;;;5080511;28;20127;-68
2022/04/20 04:20:35;;;;;;;9.25;4.95;;;6.60;99.90;;;;;;5085573;28;20111;-67
2022/04/20 04:23:01;;;;;;;7.13;4.60;;;6.60;99.90;;;;;;5085566;28;20102;-67
2022/04/20 04:25:27;;;;;;;8.85;4.90;;;6.50;99.90;;;;;;5088461;28;20089;-69
2022/04/20 04:27:52;;;;;;;7.32;4.50;;;6.50;99.90;;;;;;5084470;28;20384;-67
2022/04/20 04:30:18;;;;;;;8.68;4.57;;;6.50;99.90;;;;;;5082430;28;20127;-67
2022/04/20 04:32:43;;;;;;;8.07;4.82;;;6.50;99.90;;;;;;5078090;28;20075;-68
2022/04/20 04:35:09;;;;;;;7.97;5.05;;;6.50;99.90;;;;;;5081201;28;20052;-68
2022/04/20 04:37:35;;;;;;;8.55;4.88;;;6.50;99.90;;;;;;5085326;28;20081;-68
2022/04/20 04:40:02;;;;;;;8.40;4.70;;;6.50;99.90;;;;;;5086508;28;20556;-68
2022/04/20 04:42:27;;;;;;;8.23;4.78;;;6.50;99.90;;;;;;5083225;28;20048;-68
2022/04/20 04:44:53;;;;;;;7.70;4.50;;;6.50;99.90;;;;;;5084256;28;20114;-68
2022/04/20 04:50:04;;;;;;;8.77;4.75;;;6.50;99.90;;;;;;5087597;28;20063;-67
2022/04/20 04:52:31;;;;;;;11.30;5.10;;;6.50;99.90;;;;;;5086454;28;20036;-68
2022/04/20 04:54:56;;;;;;;13.20;5.10;;;6.50;99.90;;;;;;5083845;28;20177;-68
2022/04/20 04:57:22;;;;;;;8.07;4.80;;;6.40;99.90;;;;;;5085135;28;20143;-68
2022/04/20 04:59:47;;;;;;;11.63;5.53;;;6.60;99.90;;;;;;5088489;28;20479;-68
2022/04/20 05:02:13;;;;;;;9.77;5.47;;;6.90;99.90;;;;;;5084518;28;20487;-68
2022/04/20 05:04:42;;;;;;;10.85;5.70;;;7.40;99.90;;;;;;5085009;28;20489;-69
2022/04/20 05:07:08;;;;;;;8.45;5.72;;;8.20;99.90;;;;;;5083568;28;20421;-68
2022/04/20 05:09:33;;;;;;;9.90;6.22;;;8.70;99.90;;;;;;5084970;28;20032;-69
2022/04/20 05:11:59;;;;;;;8.38;5.65;;;8.80;99.90;;;;;;5082311;28;20055;-69
2022/04/20 05:14:25;;;;;;;8.85;5.35;;;8.80;99.90;;;;;;5083378;28;20177;-68
2022/04/20 05:16:51;;;;;;;10.45;5.28;;;8.60;99.90;;;;;;5083571;28;20154;-67
2022/04/20 05:19:17;;;;;;;8.10;4.97;;;8.40;99.90;;;;;;5083726;28;20464;-68
2022/04/20 05:21:43;;;;;;;13.52;5.38;;;8.20;99.90;;;;;;5084119;28;20039;-68
2022/04/20 05:24:08;;;;;;;8.85;5.18;;;8.10;99.90;;;;;;5081405;28;20044;-68
2022/04/20 05:26:34;;;;;;;8.82;5.15;;;8.00;99.90;;;;;;5082627;28;20108;-67
2022/04/20 05:29:00;;;;;;;7.68;4.68;;;8.00;99.90;;;;;;5087038;28;20123;-67
2022/04/20 05:31:26;;;;;;;8.25;5.05;;;8.00;99.90;;;;;;5085996;28;20140;-68
2022/04/20 05:33:51;;;;;;;7.80;5.00;;;8.00;99.90;;;;;;5085591;28;20159;-67
2022/04/20 05:36:20;;;;;;;8.52;4.63;;;8.00;99.90;;;;;;5086038;28;20040;-68
2022/04/20 05:41:40;;;;;;;9.27;5.00;;;8.00;99.90;;;;;;5085049;28;20101;-69
2022/04/20 05:44:06;;;;;;;;;;;8.00;99.90;;;;;;5084046;28;20040;-67
2022/04/20 05:46:33;;;;;;;10.13;4.57;;;8.00;99.90;;;;;;5087872;28;20015;-67
2022/04/20 05:48:59;;;;;;;9.73;5.40;;;8.00;99.90;;;;;;5086191;28;20347;-66
2022/04/20 05:51:24;;;;;;;8.20;4.80;;;8.00;99.90;;;;;;5087167;28;20513;-67
2022/04/20 05:53:50;;;;;;;10.50;5.28;;;8.00;99.90;;;;;;5084366;28;20043;-67
2022/04/20 05:56:16;;;;;;;11.48;5.55;;;8.00;99.90;;;;;;5086220;28;20042;-67
2022/04/20 05:58:41;;;;;;;12.10;5.25;;;8.00;99.90;;;;;;5078744;28;20124;-67
2022/04/20 06:01:07;;;;;;;8.70;5.22;;;8.10;99.90;;;;;;5085188;28;20059;-68
2022/04/20 06:03:32;;;;;;;10.80;6.03;;;8.20;99.90;;;;;;5086062;28;20051;-67
2022/04/20 06:06:01;;;;;;;9.63;5.35;;;8.20;99.90;;;;;;5088927;28;20044;-68
2022/04/20 06:08:27;;;;;;;10.15;5.38;;;8.20;99.90;;;;;;5091148;28;20044;-67
2022/04/20 06:10:52;;;;;;;8.20;5.15;;;8.30;99.90;;;;;;5088277;28;20040;-67
2022/04/20 06:13:18;;;;;;;8.82;5.30;;;8.30;99.90;;;;;;5088151;28;20040;-68
2022/04/20 06:15:44;;;;;;;8.15;5.05;;;8.30;99.90;;;;;;5083842;28;20067;-68
2022/04/20 06:18:10;;;;;;;8.63;4.88;;;8.50;99.90;;;;;;5086124;28;20128;-66
2022/04/20 06:20:35;;;;;;;7.63;4.80;;;8.50;99.90;;;;;;5085783;28;20126;-67
2022/04/20 06:23:01;;;;;;;7.72;4.63;;;8.60;99.90;;;;;;5083077;28;20055;-67
2022/04/20 06:25:26;;;;;;;6.78;4.63;;;8.70;99.90;;;;;;5084952;28;20113;-66
2022/04/20 06:27:52;;;;;;;8.05;4.80;;;8.70;99.90;;;;;;5078476;28;20143;-67
2022/04/20 06:30:17;;;;;;;7.88;4.70;;;8.80;99.90;;;;;;5089794;28;20124;-67
2022/04/20 06:32:43;;;;;;;9.52;4.53;;;8.90;99.90;;;;;;5084968;28;20040;-66
2022/04/20 06:35:08;;;;;;;9.35;4.68;;;9.00;99.90;;;;;;5076629;28;20036;-67
2022/04/20 06:37:34;;;;;;;9.23;4.68;;;9.10;99.90;;;;;;5087141;28;20104;-66
2022/04/20 06:39:59;;;;;;;9.35;4.53;;;9.20;99.90;;;;;;5090061;28;20357;-66
2022/04/20 06:42:26;;;;;;;6.97;3.90;;;9.30;99.90;;;;;;5087649;28;20132;-66
2022/04/20 06:44:52;;;;;;;8.05;4.30;;;9.30;99.90;;;;;;5089860;28;20483;-67
2022/04/20 06:47:17;;;;;;;8.00;4.28;;;9.40;99.90;;;;;;5088386;28;20047;-66
2022/04/20 06:49:43;;;;;;;7.85;4.55;;;9.50;99.90;;;;;;5087760;28;20139;-66
2022/04/20 07:00:21;;;;;;;6.85;4.10;;;9.80;99.90;;;;;;5088707;28;20098;-67
2022/04/20 07:02:47;;;;;;;6.97;3.55;;;9.90;99.90;;;;;;5087563;28;20040;-66
2022/04/20 07:05:12;;;;;;;8.02;4.00;;;10.00;99.90;;;;;;5087363;28;20189;-68
2022/04/20 07:07:38;;;;;;;7.00;4.03;;;10.10;98.90;;;;;;5089551;28;20127;-68
2022/04/20 07:10:04;;;;;;;7.45;3.70;;;10.10;98.60;;;;;;5088708;28;20127;-67
2022/04/20 07:12:30;;;;;;;6.65;3.55;;;10.20;98.30;;;;;;5083743;28;20036;-65
2022/04/20 07:14:55;;;;;;;6.60;3.70;;;10.20;98.20;;;;;;5083695;28;20444;-64
2022/04/20 07:17:21;;;;;;;9.40;4.28;;;10.30;98.00;;;;;;5078427;28;20044;-67
2022/04/20 07:19:46;;;;;;;9.10;3.88;;;10.40;98.20;;;;;;5082103;28;20046;-69
2022/04/20 07:22:12;;;;;;;5.63;3.17;;;10.50;98.10;;;;;;5069718;28;20038;-66
2022/04/20 07:24:37;;;;;;;5.35;3.45;;;10.60;98.00;;;;;;5086010;28;20048;-67
2022/04/20 07:27:03;;;;;;;5.70;3.47;;;10.70;96.20;;;;;;5084687;28;20386;-67
2022/04/20 07:29:29;;;;;;;6.18;3.50;;;10.70;96.90;;;;;;5084522;28;20395;-67
2022/04/20 07:31:54;;;;;;;8.50;3.78;;;10.80;96.80;;;;;;5082712;28;20059;-67
2022/04/20 07:34:20;;;;;;;7.28;3.58;;;10.90;96.70;;;;;;5082821;28;20048;-66
2022/04/20 07:36:47;;;;;;;7.20;3.65;;;10.90;95.60;;;;;;5084082;28;20487;-67
2022/04/20 07:39:12;;;;;;;5.75;3.28;;;11.00;95.70;;;;;;5086101;28;20454;-66
2022/04/20 07:41:39;;;;;;;5.53;3.60;;;11.10;96.00;;;;;;5085654;28;20052;-66
2022/04/20 07:44:05;;;;;;;5.65;3.35;;;11.20;95.10;;;;;;5084486;28;20111;-67
2022/04/20 07:46:30;;;;;;;6.93;3.80;;;11.30;94.40;;;;;;5084955;28;20147;-67
2022/04/20 07:48:56;;;;;;;8.35;3.22;;;11.40;94.40;;;;;;5084587;28;20116;-67
2022/04/20 07:51:22;;;;;;;6.10;3.20;;;11.40;94.40;;;;;;5085361;28;20050;-68
2022/04/20 07:53:47;;;;;;;7.15;3.00;;;11.50;93.00;;;;;;5084927;28;20063;-68
2022/04/20 07:56:13;;;;;;;6.25;3.20;;;11.60;92.70;;;;;;5086048;28;20109;-67
2022/04/20 07:58:38;;;;;;;7.55;2.90;;;11.70;92.60;;;;;;5077114;28;20289;-67
2022/04/20 08:01:04;;;;;;;5.32;3.08;;;11.80;90.50;;;;;;5086893;28;20830;-67
2022/04/20 08:03:29;;;;;;;6.28;2.88;;;11.80;89.20;;;;;;5085136;28;20050;-67
2022/04/20 08:05:56;;;;;;;8.48;2.80;;;11.90;89.60;;;;;;5083924;28;20036;-67
2022/04/20 08:08:24;;;;;;;6.10;3.08;;;11.90;85.00;;;;;;5084658;28;20040;-67
2022/04/20 08:10:50;;;;;;;5.82;2.33;;;12.00;85.30;;;;;;5081821;28;20766;-67
2022/04/20 08:16:00;;;;;;;5.10;2.75;;;12.10;82.30;;;;;;5088577;28;20051;-67
2022/04/20 08:18:26;;;;;;;6.75;2.33;;;12.30;80.10;;;;;;5087489;28;20349;-67
2022/04/20 08:20:53;;;;;;;4.60;2.35;;;12.40;81.20;;;;;;5087900;28;20164;-68
2022/04/20 08:23:18;;;;;;;3.95;2.15;;;12.40;77.70;;;;;;5087052;28;20118;-68
2022/04/20 08:25:45;;;;;;;5.25;2.20;;;12.50;73.10;;;;;;5087825;28;20185;-67
2022/04/20 08:28:11;;;;;;;4.57;2.25;;;12.50;71.50;;;;;;5086774;28;20056;-67
2022/04/20 08:30:39;;;;;;;3.90;1.95;;;12.50;67.20;;;;;;5089606;28;20047;-67
2022/04/20 08:33:07;;;;;;;4.45;2.20;;;12.50;68.40;;;;;;5089061;28;20048;-67
2022/04/20 08:35:36;;;;;;;5.90;2.30;;;12.60;67.80;;;;;;5080910;28;20044;-67
2022/04/20 08:38:03;;;;;;;4.90;2.25;;;12.70;67.50;;;;;;5083830;28;20438;-68
2022/04/20 08:40:30;;;;;;;4.30;2.10;;;12.70;67.10;;;;;;5088631;28;20799;-67
2022/04/20 08:43:01;;;;;;;4.68;2.00;;;12.80;67.90;;;;;;5088156;28;20072;-67
2022/04/20 08:45:27;;;;;;;5.00;2.40;;;12.80;65.20;;;;;;5086535;28;20433;-67
2022/04/20 08:47:56;;;;;;;5.15;2.13;;;12.90;65.60;;;;;;5088736;28;20048;-68
2022/04/20 08:50:23;;;;;;;4.47;2.15;;;12.90;64.70;;;;;;5087358;28;20044;-68
2022/04/20 08:52:50;;;;;;;6.43;2.20;;;13.00;65.50;;;;;;5081022;28;20511;-68
2022/04/20 08:55:18;;;;;;;3.72;1.98;;;13.10;66.20;;;;;;5086436;28;20067;-68
2022/04/20 08:57:48;;;;;;;7.05;2.17;;;13.10;65.20;;;;;;5088279;28;20047;-68
2022/04/20 09:00:20;;;;;;;4.45;1.75;;;13.20;63.60;;;;;;5087497;28;20753;-67
2022/04/20 09:02:49;;;;;;;3.55;1.95;;;13.30;64.20;;;;;;5069901;28;20064;-68
2022/04/20 09:05:14;;;;;;;4.20;2.20;;;13.40;65.60;;;;;;5088749;28;20040;-67
2022/04/20 09:07:40;;;;;;;4.25;2.33;;;13.40;66.40;;;;;;5086631;28;20100;-69
2022/04/20 09:10:06;;;;;;;5.45;2.35;;;13.50;65.60;;;;;;5086140;28;20120;-69
2022/04/20 09:12:32;;;;;;;4.53;2.20;;;13.60;63.80;;;;;;5084972;28;20052;-68
2022/04/20 09:15:00;;;;;;;5.90;2.05;;;13.60;64.00;;;;;;5090009;28;20044;-67
2022/04/20 09:17:26;;;;;;;4.18;2.10;;;13.70;63.30;;;;;;5088431;28;20044;-68
2022/04/20 09:19:56;;;;;;;5.25;1.95;;;13.70;64.00;;;;;;5087108;28;20051;-68
2022/04/20 09:22:26;;;;;;;4.70;2.03;;;13.80;64.40;;;;;;5086961;28;20055;-69
2022/04/20 09:25:08;;;;;;;4.90;2.33;;;14.00;65.50;;;;;;5081652;28;20430;-67
2022/04/20 09:27:40;;;;;;;3.42;1.98;;;14.00;59.90;;;;;;5086621;28;20799;-67
2022/04/20 09:30:13;;;;;;;4.15;2.17;;;13.90;60.30;;;;;;5086368;28;20153;-67
2022/04/20 09:32:44;;;;;;;4.13;1.95;;;14.10;61.60;;;;;;5085517;28;20041;-68
2022/04/20 09:35:18;;;;;;;5.05;2.20;;;14.10;59.90;;;;;;5086926;28;20468;-68
2022/04/20 09:37:44;;;;;;;5.37;1.93;;;14.10;58.40;;;;;;5085457;28;20196;-67
2022/04/20 09:40:13;;;;;;;4.00;1.98;;;14.20;59.10;;;;;;5086301;28;20349;-68
2022/04/20 09:43:02;;;;;;;5.55;2.20;;;14.20;59.60;;;;;;5085834;28;20101;-67
2022/04/20 09:45:28;;;;;;;4.47;2.50;;;14.30;60.00;;;;;;5087509;28;20051;-67
2022/04/20 09:50:39;;;;;;;;;;;14.50;61.90;;;;;;5085547;28;20063;-68
2022/04/20 09:53:10;;;;;;;4.15;1.90;;;14.60;58.50;;;;;;5085156;28;19924;-69
2022/04/20 09:55:37;;;;;;;5.07;1.58;;;14.60;57.80;;;;;;5083756;28;20102;-67
2022/04/20 09:58:12;;;;;;;4.07;2.10;;;14.60;56.80;;;;;;5083841;28;20116;-69
2022/04/20 10:00:44;;;;;;;4.13;1.67;;;14.70;56.70;;;;;;5083633;28;20052;-68
2022/04/20 10:03:10;;;;;;;5.00;2.00;;;14.70;56.30;;;;;;5082772;28;20044;-67
2022/04/20 10:05:39;;;;;;;5.03;2.00;;;14.70;55.70;;;;;;5084626;28;20109;-67
2022/04/20 10:08:05;;;;;;;3.75;1.70;;;14.80;55.10;;;;;;5085111;28;20050;-67
2022/04/20 10:10:32;;;;;;;5.00;2.28;;;14.80;53.60;;;;;;5082396;28;20604;-68
2022/04/20 10:13:00;;;;;;;3.42;1.70;;;14.90;53.60;;;;;;5081696;28;20051;-68
2022/04/20 10:18:17;;;;;;;3.95;1.80;;;14.90;51.70;;;;;;5080798;28;20051;-68
2022/04/20 10:20:46;;;;;;;3.65;1.90;;;14.90;51.40;;;;;;5083234;28;20126;-67
2022/04/20 10:23:14;;;;;;;4.00;1.85;;;15.00;52.20;;;;;;5077857;28;20049;-67
2022/04/20 10:25:40;;;;;;;2.95;1.65;;;15.00;51.30;;;;;;5078405;28;20184;-68
2022/04/20 10:28:25;;;;;;;5.00;1.95;;;15.20;52.90;;;;;;5083051;28;20424;-67
2022/04/20 10:31:12;;;;;;;3.88;1.60;;;15.20;51.60;;;;;;5082619;28;20052;-68
2022/04/20 10:33:40;;;;;;;3.72;1.77;;;15.30;53.00;;;;;;5077044;28;20043;-71
2022/04/20 10:36:11;;;;;;;4.55;1.92;;;15.30;52.20;;;;;;5083809;28;20073;-68
2022/04/20 10:38:38;;;;;;;4.60;2.05;;;15.30;52.10;;;;;;5082089;28;20063;-68
2022/04/20 10:41:11;;;;;;;4.13;2.00;;;15.40;52.40;;;;;;5069512;28;20044;-70
2022/04/20 10:43:41;;;;;;;5.85;2.17;;;15.40;50.90;;;;;;5083780;28;20139;-66
2022/04/20 10:46:17;;;;;;;5.20;2.03;;;15.40;51.00;;;;;;5083135;28;20070;-69
2022/04/20 10:48:57;;;;;;;4.38;1.98;;;15.50;52.00;;;;;;5083054;28;20098;-68
2022/04/20 10:51:35;;;;;;;4.95;1.92;;;15.60;50.80;;;;;;5080377;28;20062;-67
2022/04/20 10:54:19;;;;;;;9.32;2.28;;;15.60;51.70;;;;;;5083255;28;20046;-67
2022/04/20 10:56:49;;;;;;;6.23;2.00;;;15.70;53.80;;;;;;5082381;28;20502;-67
2022/04/20 10:59:14;;;;;;;3.47;1.90;;;15.80;52.60;;;;;;5080144;28;20135;-66
2022/04/20 11:02:06;;;;;;;4.78;2.00;;;15.80;51.60;;;;;;5085033;28;20131;-65
2022/04/20 11:04:39;;;;;;;4.40;2.00;;;15.80;52.50;;;;;;5069700;28;20460;-66
2022/04/20 11:07:07;;;;;;;3.70;1.90;;;15.80;52.60;;;;;;5078377;28;20124;-66
2022/04/20 11:09:42;;;;;;;4.88;1.95;;;15.90;52.70;;;;;;5081876;28;20909;-67
2022/04/20 11:21:06;;;;;;;3.13;1.60;;;16.10;49.20;;;;;;5080795;28;20134;-67
2022/04/20 11:23:54;;;;;;;4.97;2.05;;;16.20;53.10;;;;;;5084345;28;20055;-67
2022/04/20 11:26:41;;;;;;;2.50;1.60;;;16.20;51.90;;;;;;5063938;28;20052;-67
2022/04/20 11:29:17;;;;;;;3.97;1.77;;;16.30;52.70;;;;;;5077588;28;20040;-67
2022/04/20 11:31:48;;;;;;;5.18;2.10;;;16.30;51.20;;;;;;5083427;28;20055;-67
2022/04/20 11:34:16;;;;;;;4.18;2.20;;;16.30;51.00;;;;;;5082986;28;20048;-67
2022/04/20 11:36:47;;;;;;;3.88;2.10;;;16.30;51.50;;;;;;5083190;28;20052;-67
2022/04/20 11:39:15;;;;;;;4.72;1.90;;;16.40;51.20;;;;;;5083967;28;20048;-67
2022/04/20 11:41:49;;;;;;;4.85;2.47;;;16.40;52.30;;;;;;5080241;28;20051;-67
2022/04/20 11:44:34;;;;;;;5.93;2.20;;;16.50;53.30;;;;;;5083033;28;20040;-67
2022/04/20 11:47:05;;;;;;;4.05;2.17;;;16.50;52.60;;;;;;5088641;28;20075;-67
2022/04/20 11:49:44;;;;;;;4.57;2.20;;;16.40;51.40;;;;;;5084632;28;20035;-67
2022/04/20 11:52:11;;;;;;;4.63;2.08;;;16.50;51.90;;;;;;5084581;28;20059;-68
2022/04/20 11:54:38;;;;;;;3.65;2.10;;;16.50;51.40;;;;;;5088153;28;20150;-67
2022/04/20 11:57:06;;;;;;;6.13;2.25;;;16.60;51.70;;;;;;5086254;28;20391;-68
2022/04/20 11:59:32;;;;;;;4.47;2.33;;;16.50;50.60;;;;;;5086491;28;20061;-67
2022/04/20 12:01:58;;;;;;;5.35;2.55;;;16.60;51.90;;;;;;5087308;28;20126;-67
2022/04/20 12:04:26;;;;;;;5.80;2.65;;;16.70;51.50;;;;;;5086130;28;20454;-68
2022/04/20 12:06:57;;;;;;;8.70;2.67;;;16.60;50.20;;;;;;5085365;28;20177;-67
2022/04/20 12:09:25;;;;;;;5.45;2.50;;;16.60;51.50;;;;;;5085577;28;20050;-67
2022/04/20 12:11:52;;;;;;;3.63;2.10;;;16.70;51.70;;;;;;5086327;28;20055;-66
2022/04/20 12:14:19;;;;;;;5.05;2.05;;;16.80;52.90;;;;;;5085591;28;20052;-67
2022/04/20 12:16:45;;;;;;;4.13;2.35;;;16.90;52.10;;;;;;5085103;28;20471;-67
2022/04/20 12:19:11;;;;;;;4.72;2.60;;;16.90;51.20;;;;;;5088104;28;20402;-67
2022/04/20 12:21:47;;;;;;;5.05;2.70;;;16.90;50.90;;;;;;5082918;28;20040;-67
2022/04/20 12:24:20;;;;;;;6.30;2.47;;;16.90;50.50;;;;;;5082812;28;20071;-67
2022/04/20 12:26:47;;;;;;;4.38;2.40;;;17.00;52.20;;;;;;5085711;28;20040;-67
2022/04/20 12:29:14;;;;;;;4.97;2.17;;;17.00;51.20;;;;;;5068163;28;20144;-67
2022/04/20 12:31:43;;;;;;;4.10;2.00;;;17.10;50.60;;;;;;5075129;28;20127;-68
2022/04/20 12:34:10;;;;;;;4.60;2.30;;;17.10;50.30;;;;;;5085515;28;20096;-67
2022/04/20 12:37:07;;;;;;;5.63;2.17;;;17.00;50.00;;;;;;5086636;28;20398;-67
2022/04/20 12:39:34;;;;;;;4.85;2.13;;;17.00;48.90;;;;;;5082832;28;20063;-68
2022/04/20 12:42:11;;;;;;;5.25;2.03;;;17.10;50.30;;;;;;5090458;28;20051;-67
2022/04/20 12:44:48;;;;;;;4.18;2.08;;;17.10;48.70;;;;;;5091161;28;20509;-66
2022/04/20 12:47:17;;;;;;;3.08;1.63;;;17.10;48.80;;;;;;5090100;28;20032;-66
2022/04/20 12:49:45;;;;;;;5.22;1.67;;;17.20;48.70;;;;;;5091221;28;20067;-66
2022/04/20 12:52:22;;;;;;;4.20;2.05;;;17.30;49.60;;;;;;5088423;28;20094;-67
2022/04/20 12:55:07;;;;;;;4.82;1.90;;;17.30;48.20;;;;;;5088543;28;20055;-66
2022/04/20 13:03:17;;;;;;;4.82;1.70;;;17.50;48.00;;;;;;5091150;28;20044;-67
2022/04/20 13:05:44;;;;;;;5.13;2.10;;;17.50;46.40;;;;;;5089786;28;20502;-66
2022/04/20 13:08:12;;;;;;;4.72;2.00;;;17.50;47.40;;;;;;5090352;28;20147;-66
2022/04/20 13:10:40;;;;;;;4.47;1.58;;;17.50;48.60;;;;;;5092813;28;20040;-66
2022/04/20 13:13:07;;;;;;;3.95;1.60;;;17.50;47.60;;;;;;5090552;28;20036;-66
2022/04/20 13:15:34;;;;;;;2.75;1.52;;;17.50;47.50;;;;;;5091994;28;20090;-67
2022/04/20 13:18:00;;;;;;;3.78;1.60;;;17.50;47.80;;;;;;5092058;28;20076;-67
2022/04/20 13:20:28;;;;;;;6.47;1.98;;;17.60;46.20;;;;;;5089708;28;20044;-66
2022/04/20 13:22:55;;;;;;;4.38;1.50;;;17.50;44.90;;;;;;5090747;28;20069;-67
2022/04/20 13:28:05;;;;;;;3.15;1.50;;;17.50;44.30;;;;;;5090362;28;20067;-66
2022/04/20 13:30:36;;;;;;;2.35;1.40;;;17.60;46.60;;;;;;5089981;28;20051;-66
2022/04/20 13:33:03;;;;;;;4.32;1.58;;;17.70;46.40;;;;;;5090975;28;20093;-68
2022/04/20 13:35:29;;;;;;;2.30;1.40;;;17.80;46.00;;;;;;5090545;28;20044;-66
2022/04/20 13:37:55;;;;;;;6.50;1.65;;;17.90;46.20;;;;;;5091533;28;20062;-66
2022/04/20 13:40:21;;;;;;;4.15;1.65;;;17.90;44.80;;;;;;5087669;28;20051;-66